Time;durP1;ratioP1;P1;durP2;ratioP2;P2;SDS_P1;SDS_P2;PMS_P1;PMS_P2;Temp;Humidity;BMP_temperature;BMP_pressure;BME280_temperature;BME280_humidity;BME280_pressure;Samples;Min_cycle;Max_cycle;Signal;HPM_P1;HPM_P2
2022/12/12 00:01:28;;;;;;;30.80;18.52;;;3.90;67.10;;;;;;5007070;28;20038;-54
2022/12/12 00:03:57;;;;;;;31.10;18.00;;;3.90;67.40;;;;;;5002990;28;20056;-50
2022/12/12 00:06:28;;;;;;;30.48;18.55;;;3.80;67.40;;;;;;5009335;28;20053;-52
2022/12/12 00:08:57;;;;;;;29.83;18.38;;;3.80;67.50;;;;;;5005328;28;20042;-49
2022/12/12 00:11:25;;;;;;;29.10;17.13;;;3.70;67.50;;;;;;5010952;28;20034;-52
2022/12/12 00:13:54;;;;;;;31.02;18.10;;;3.70;67.40;;;;;;5011020;28;20108;-52
2022/12/12 00:16:22;;;;;;;28.95;16.80;;;3.70;67.40;;;;;;5010736;28;20095;-49
2022/12/12 00:18:50;;;;;;;26.42;17.35;;;3.60;67.40;;;;;;5005038;28;20080;-51
2022/12/12 00:21:20;;;;;;;26.67;16.75;;;3.50;67.40;;;;;;5011232;28;20406;-53
2022/12/12 00:23:46;;;;;;;24.65;16.55;;;3.50;67.40;;;;;;5010851;28;20054;-53
2022/12/12 00:26:25;;;;;;;27.38;16.67;;;3.50;67.40;;;;;;5009086;28;20042;-54
2022/12/12 00:28:55;;;;;;;25.95;15.48;;;3.40;67.40;;;;;;5008015;28;20076;-55
2022/12/12 00:31:22;;;;;;;27.35;16.52;;;3.40;67.30;;;;;;5010929;28;20033;-54
2022/12/12 00:33:49;;;;;;;27.00;16.52;;;3.40;67.30;;;;;;5010876;28;20034;-55
2022/12/12 00:36:27;;;;;;;28.08;16.60;;;3.30;67.30;;;;;;5008714;28;20075;-54
2022/12/12 00:39:00;;;;;;;29.30;17.90;;;3.30;67.40;;;;;;5009994;28;20208;-56
2022/12/12 00:41:30;;;;;;;31.67;18.13;;;3.30;67.50;;;;;;5010780;28;20070;-53
2022/12/12 00:43:57;;;;;;;28.08;17.20;;;3.20;67.40;;;;;;5010815;28;20042;-53
2022/12/12 00:46:26;;;;;;;29.85;18.27;;;3.20;67.40;;;;;;5003169;28;20506;-54
2022/12/12 00:48:56;;;;;;;28.42;17.85;;;3.10;67.30;;;;;;5010597;28;20509;-52
2022/12/12 00:51:24;;;;;;;28.70;18.10;;;3.10;67.30;;;;;;5010824;28;20038;-54
2022/12/12 00:53:51;;;;;;;28.50;17.10;;;3.00;67.20;;;;;;5004283;28;20034;-51
2022/12/12 00:56:20;;;;;;;28.33;17.13;;;3.00;67.20;;;;;;5010530;28;20136;-50
2022/12/12 00:58:47;;;;;;;27.20;16.20;;;3.00;67.20;;;;;;5010437;28;20050;-54
2022/12/12 01:01:17;;;;;;;26.55;16.13;;;2.90;67.20;;;;;;5011129;28;20038;-52
2022/12/12 01:03:44;;;;;;;25.25;16.05;;;2.90;67.20;;;;;;5002748;28;20050;-54
2022/12/12 01:06:16;;;;;;;25.55;16.27;;;2.90;67.10;;;;;;5005947;28;20108;-55
2022/12/12 01:08:44;;;;;;;24.67;15.60;;;2.80;67.10;;;;;;5010391;28;20053;-54
2022/12/12 01:11:14;;;;;;;28.58;16.45;;;2.80;67.00;;;;;;5008225;28;20281;-55
2022/12/12 01:13:45;;;;;;;28.92;15.48;;;2.80;67.10;;;;;;5011186;28;20100;-55
2022/12/12 01:16:14;;;;;;;25.98;15.82;;;2.80;67.00;;;;;;5014078;28;20514;-55
2022/12/12 01:18:41;;;;;;;25.85;15.65;;;2.70;67.00;;;;;;5014440;28;20073;-54
2022/12/12 01:21:10;;;;;;;25.85;15.20;;;2.70;67.00;;;;;;5012431;28;20034;-54
2022/12/12 01:23:40;;;;;;;27.48;15.70;;;2.60;66.90;;;;;;5006266;28;20042;-52
2022/12/12 01:26:10;;;;;;;25.90;16.00;;;2.60;66.90;;;;;;5014563;28;20041;-54
2022/12/12 01:28:37;;;;;;;28.90;17.00;;;2.60;66.90;;;;;;5013311;28;20045;-51
2022/12/12 01:31:05;;;;;;;27.90;17.00;;;2.60;66.90;;;;;;5014403;28;20045;-56
2022/12/12 01:33:31;;;;;;;31.80;16.65;;;2.60;66.90;;;;;;5007997;28;20484;-56
2022/12/12 01:35:58;;;;;;;29.00;17.25;;;2.50;66.90;;;;;;5006206;28;20406;-51
2022/12/12 01:38:25;;;;;;;25.75;15.48;;;2.50;66.90;;;;;;5013949;28;20044;-54
2022/12/12 01:40:55;;;;;;;30.90;17.75;;;2.50;67.00;;;;;;5012530;28;20720;-53
2022/12/12 01:43:23;;;;;;;32.83;17.98;;;2.50;66.90;;;;;;5025990;28;20045;-54
2022/12/12 01:45:59;;;;;;;27.80;16.48;;;2.40;66.90;;;;;;5013685;28;20037;-54
2022/12/12 01:48:30;;;;;;;29.33;16.40;;;2.40;66.90;;;;;;5013605;28;20038;-53
2022/12/12 01:51:02;;;;;;;30.30;17.40;;;2.40;66.90;;;;;;5011746;28;20084;-53
2022/12/12 01:53:32;;;;;;;28.20;16.83;;;2.30;66.90;;;;;;5009909;28;20418;-53
2022/12/12 01:56:01;;;;;;;32.78;17.77;;;2.30;66.90;;;;;;5005152;28;20084;-50
2022/12/12 01:58:37;;;;;;;34.28;18.52;;;2.30;66.80;;;;;;5008360;28;20045;-51
2022/12/12 02:01:06;;;;;;;31.60;17.83;;;2.30;66.80;;;;;;5020455;28;20069;-52
2022/12/12 02:03:38;;;;;;;29.20;16.42;;;2.30;66.80;;;;;;5013144;28;20042;-50
2022/12/12 02:06:11;;;;;;;28.50;16.73;;;2.30;66.80;;;;;;5012258;28;20038;-50
2022/12/12 02:08:38;;;;;;;30.95;17.48;;;2.20;66.70;;;;;;5011893;28;20046;-49
2022/12/12 02:11:05;;;;;;;30.33;17.02;;;2.20;66.70;;;;;;5010116;28;20034;-54
2022/12/12 02:13:33;;;;;;;30.13;17.23;;;2.20;66.70;;;;;;5013330;28;20484;-52
2022/12/12 02:16:33;;;;;;;31.38;17.77;;;2.10;66.60;;;;;;5013090;28;20053;-50
2022/12/12 02:19:30;;;;;;;29.55;16.48;;;2.10;66.60;;;;;;5007905;28;20091;-54
2022/12/12 02:22:03;;;;;;;27.45;17.95;;;2.10;66.50;;;;;;5012933;28;20120;-52
2022/12/12 02:24:49;;;;;;;26.17;16.13;;;2.10;67.20;;;;;;5008178;28;20056;-49
2022/12/12 02:27:53;;;;;;;28.52;16.27;;;2.10;66.60;;;;;;5012764;28;20050;-52
2022/12/12 02:30:21;;;;;;;29.73;16.30;;;2.00;66.40;;;;;;5011832;28;20046;-54
2022/12/12 02:33:00;;;;;;;29.85;17.23;;;2.00;66.50;;;;;;5012558;28;20045;-50
2022/12/12 02:36:04;;;;;;;30.70;16.95;;;2.00;66.50;;;;;;5013299;28;20046;-53
2022/12/12 02:38:49;;;;;;;28.23;17.67;;;1.90;66.40;;;;;;5006430;28;20447;-51
2022/12/12 02:41:33;;;;;;;;;;;1.90;66.50;;;;;;5013121;28;20516;-50
2022/12/12 02:44:00;;;;;;;28.67;15.32;;;2.00;66.50;;;;;;4992994;28;19922;-50
2022/12/12 02:46:26;;;;;;;30.80;15.85;;;1.90;66.40;;;;;;4993476;28;20414;-51
2022/12/12 02:48:58;;;;;;;31.88;18.02;;;1.90;66.30;;;;;;5006188;28;20026;-51
2022/12/12 02:51:29;;;;;;;25.13;16.13;;;1.80;66.40;;;;;;5012022;28;20054;-50
2022/12/12 02:53:58;;;;;;;34.03;17.80;;;1.80;66.40;;;;;;5012513;28;20053;-53
2022/12/12 02:56:45;;;;;;;34.58;17.30;;;1.80;66.30;;;;;;5003749;28;20045;-52
2022/12/12 02:59:36;;;;;;;28.13;17.30;;;1.80;66.20;;;;;;5007265;28;20065;-50
2022/12/12 03:02:17;;;;;;;27.13;15.48;;;1.80;66.20;;;;;;5012447;28;20056;-54
2022/12/12 03:07:58;;;;;;;24.83;13.23;;;1.70;66.40;;;;;;5008281;28;20050;-53
2022/12/12 03:10:41;;;;;;;25.52;13.63;;;1.70;66.40;;;;;;5007103;28;20040;-53
2022/12/12 03:13:24;;;;;;;23.98;12.82;;;1.70;66.50;;;;;;4992705;28;20048;-54
2022/12/12 03:16:03;;;;;;;25.88;14.40;;;1.70;66.40;;;;;;4997383;28;20088;-53
2022/12/12 03:19:11;;;;;;;23.88;13.57;;;1.60;66.30;;;;;;5011976;28;20041;-53
2022/12/12 03:22:02;;;;;;;22.15;13.60;;;1.70;66.30;;;;;;5008451;28;20050;-50
2022/12/12 03:24:38;;;;;;;21.38;13.55;;;1.60;66.30;;;;;;4992019;28;20499;-52
2022/12/12 03:27:28;;;;;;;21.77;13.55;;;1.60;66.30;;;;;;5006661;28;20521;-51
2022/12/12 03:30:05;;;;;;;24.67;13.75;;;1.60;66.30;;;;;;5011701;28;20117;-51
2022/12/12 03:33:12;;;;;;;26.02;14.55;;;1.60;66.30;;;;;;5012061;28;20410;-52
2022/12/12 03:35:44;;;;;;;21.77;12.02;;;1.50;66.00;;;;;;4994243;28;20085;-52
2022/12/12 03:38:20;;;;;;;23.35;13.05;;;1.50;66.10;;;;;;5011713;28;20116;-51
2022/12/12 03:40:59;;;;;;;21.08;11.75;;;1.50;66.10;;;;;;5012318;28;20050;-51
2022/12/12 03:43:32;;;;;;;22.00;13.02;;;1.50;66.10;;;;;;5006029;28;20045;-50
2022/12/12 03:46:06;;;;;;;21.98;12.65;;;1.40;66.00;;;;;;5003585;28;20042;-53
2022/12/12 03:48:43;;;;;;;21.83;12.57;;;1.40;66.00;;;;;;5011483;28;20053;-52
2022/12/12 03:51:21;;;;;;;23.23;12.98;;;1.40;66.60;;;;;;5008070;28;20049;-52
2022/12/12 03:54:21;;;;;;;22.42;13.02;;;1.40;66.00;;;;;;5006001;28;20092;-54
2022/12/12 03:56:56;;;;;;;21.52;12.90;;;1.40;65.80;;;;;;5010252;28;20088;-50
2022/12/12 03:59:35;;;;;;;22.70;13.32;;;1.30;65.90;;;;;;5010926;28;20046;-53
2022/12/12 04:02:20;;;;;;;21.35;13.18;;;1.30;66.00;;;;;;5007265;28;20056;-53
2022/12/12 04:05:16;;;;;;;22.45;13.27;;;1.30;66.10;;;;;;5011028;28;20079;-53
2022/12/12 04:08:06;;;;;;;20.77;12.85;;;1.30;66.20;;;;;;5010989;28;20054;-53
2022/12/12 04:13:52;;;;;;;20.52;12.40;;;1.20;66.10;;;;;;5009540;28;20069;-53
2022/12/12 04:16:37;;;;;;;19.05;12.98;;;1.20;66.10;;;;;;5005892;28;20454;-51
2022/12/12 04:19:12;;;;;;;24.50;13.88;;;1.20;66.10;;;;;;5011164;28;20052;-53
2022/12/12 04:24:56;;;;;;;22.13;14.48;;;1.20;66.10;;;;;;5009143;28;20046;-53
2022/12/12 04:27:29;;;;;;;21.75;12.50;;;1.20;66.10;;;;;;5010761;28;20230;-50
2022/12/12 04:30:01;;;;;;;23.85;13.88;;;1.20;66.10;;;;;;5005175;28;20041;-53
2022/12/12 04:32:38;;;;;;;19.45;12.35;;;1.20;66.10;;;;;;5007581;28;20069;-54
2022/12/12 04:35:20;;;;;;;24.13;13.13;;;1.20;66.10;;;;;;5003566;28;20034;-50
2022/12/12 04:37:58;;;;;;;27.17;12.38;;;1.10;66.20;;;;;;5010607;28;20052;-53
2022/12/12 04:40:48;;;;;;;22.55;11.88;;;1.10;66.20;;;;;;5007856;28;20565;-52
2022/12/12 04:43:35;;;;;;;22.00;12.00;;;1.10;66.30;;;;;;5008970;28;20042;-54
2022/12/12 04:46:14;;;;;;;22.50;12.57;;;1.10;66.30;;;;;;4991287;28;20117;-52
2022/12/12 04:48:53;;;;;;;24.67;12.80;;;1.10;66.40;;;;;;4994085;28;20122;-51
2022/12/12 04:51:27;;;;;;;24.63;13.93;;;1.10;66.50;;;;;;5006712;28;20104;-50
2022/12/12 04:54:03;;;;;;;21.55;13.85;;;1.20;66.70;;;;;;5010421;28;20073;-51
2022/12/12 04:56:35;;;;;;;23.13;13.35;;;1.20;66.80;;;;;;5006038;28;20089;-53
2022/12/12 04:59:05;;;;;;;26.08;15.13;;;1.20;66.90;;;;;;5008279;28;20041;-50
2022/12/12 05:01:43;;;;;;;25.17;15.82;;;1.20;66.90;;;;;;5010803;28;20042;-53
2022/12/12 05:04:37;;;;;;;27.45;14.27;;;1.30;67.10;;;;;;5010514;28;20061;-51
2022/12/12 05:07:15;;;;;;;20.75;13.52;;;1.30;67.20;;;;;;5006460;28;20042;-50
2022/12/12 05:09:42;;;;;;;25.92;14.98;;;1.30;67.10;;;;;;5005643;28;20934;-51
2022/12/12 05:12:20;;;;;;;25.45;14.30;;;1.40;67.20;;;;;;5001663;28;20041;-51
2022/12/12 05:14:47;;;;;;;26.60;15.10;;;1.40;67.00;;;;;;4998343;28;20052;-51
2022/12/12 05:17:24;;;;;;;20.17;13.15;;;1.40;66.80;;;;;;5007028;28;20049;-50
2022/12/12 05:19:50;;;;;;;21.52;12.82;;;1.40;66.60;;;;;;5003027;28;20121;-54
2022/12/12 05:22:25;;;;;;;24.52;14.55;;;1.40;66.50;;;;;;4999409;28;20052;-50
2022/12/12 05:24:57;;;;;;;25.42;14.57;;;1.40;66.40;;;;;;4998708;28;20050;-53
2022/12/12 05:27:25;;;;;;;24.77;14.45;;;1.40;66.20;;;;;;5006418;28;20124;-50
2022/12/12 05:29:51;;;;;;;26.13;15.68;;;1.40;66.10;;;;;;5004889;28;20041;-54
2022/12/12 05:32:18;;;;;;;23.77;14.82;;;1.30;65.90;;;;;;5001010;28;20049;-54
2022/12/12 05:34:46;;;;;;;23.65;14.13;;;1.30;65.80;;;;;;4998095;28;20123;-53
2022/12/12 05:37:17;;;;;;;23.13;14.68;;;1.30;65.80;;;;;;4999477;28;20117;-53
2022/12/12 05:39:47;;;;;;;24.95;13.45;;;1.20;65.70;;;;;;5001483;28;20050;-50
2022/12/12 05:42:17;;;;;;;20.08;11.93;;;1.20;65.80;;;;;;5004257;28;20046;-53
2022/12/12 05:44:46;;;;;;;20.67;13.65;;;1.20;65.80;;;;;;5000119;28;20030;-53
2022/12/12 05:47:17;;;;;;;20.40;12.93;;;1.10;65.80;;;;;;5003658;28;20121;-53
2022/12/12 05:49:44;;;;;;;18.67;11.65;;;1.20;65.90;;;;;;5000734;28;20042;-53
2022/12/12 05:52:11;;;;;;;21.05;12.43;;;1.10;65.90;;;;;;5006232;28;20069;-50
2022/12/12 05:54:39;;;;;;;19.77;12.27;;;1.10;65.90;;;;;;5001458;28;20052;-53
2022/12/12 05:57:05;;;;;;;22.85;12.48;;;1.10;65.80;;;;;;5005761;28;20065;-51
2022/12/12 05:59:40;;;;;;;19.90;11.43;;;1.00;65.80;;;;;;5005741;28;20067;-50
2022/12/12 06:02:07;;;;;;;21.55;12.65;;;1.00;65.70;;;;;;5013695;28;20050;-51
2022/12/12 06:04:34;;;;;;;22.33;13.13;;;0.90;65.60;;;;;;5006859;28;20149;-53
2022/12/12 06:07:00;;;;;;;20.23;12.77;;;1.00;65.70;;;;;;5013437;28;20038;-53
2022/12/12 06:09:32;;;;;;;23.27;12.63;;;0.80;65.50;;;;;;5013308;28;20116;-50
2022/12/12 06:12:01;;;;;;;22.55;13.55;;;0.80;65.50;;;;;;5010849;28;20034;-52
2022/12/12 06:14:29;;;;;;;21.73;13.07;;;0.80;65.50;;;;;;5012470;28;20042;-53
2022/12/12 06:16:57;;;;;;;24.10;13.82;;;0.80;65.40;;;;;;5001730;28;20039;-50
2022/12/12 06:19:25;;;;;;;22.10;14.32;;;0.80;65.40;;;;;;4992807;28;20364;-52
2022/12/12 06:21:52;;;;;;;22.88;13.57;;;0.70;65.40;;;;;;5008067;28;20048;-54
2022/12/12 06:24:22;;;;;;;22.92;13.77;;;0.70;65.30;;;;;;5004246;28;20068;-54
2022/12/12 06:26:49;;;;;;;23.38;13.27;;;0.60;65.40;;;;;;5004445;28;21014;-54
2022/12/12 06:29:23;;;;;;;23.98;12.32;;;0.60;65.60;;;;;;5002038;28;20041;-54
2022/12/12 06:31:53;;;;;;;21.95;12.85;;;0.60;65.70;;;;;;5010448;28;20065;-52
2022/12/12 06:34:22;;;;;;;21.10;12.75;;;0.60;65.60;;;;;;5000077;28;20046;-50
2022/12/12 06:36:48;;;;;;;22.00;13.30;;;0.60;65.60;;;;;;4995212;28;20507;-50
2022/12/12 06:39:17;;;;;;;24.20;14.05;;;0.60;65.70;;;;;;5010620;28;20048;-51
2022/12/12 06:41:44;;;;;;;21.50;12.73;;;0.60;65.80;;;;;;5006781;28;20739;-54
2022/12/12 06:44:11;;;;;;;21.92;13.43;;;0.60;66.40;;;;;;5010249;28;20042;-52
2022/12/12 06:46:43;;;;;;;26.20;13.93;;;0.50;65.70;;;;;;5009731;28;20084;-52
2022/12/12 06:49:09;;;;;;;23.02;12.68;;;0.50;65.60;;;;;;5011051;28;20054;-54
2022/12/12 06:51:42;;;;;;;22.25;12.90;;;0.50;65.70;;;;;;5002577;28;20046;-53
2022/12/12 06:54:15;;;;;;;23.08;14.82;;;0.50;65.60;;;;;;5007202;28;20046;-52
2022/12/12 06:56:41;;;;;;;23.35;13.95;;;0.50;65.60;;;;;;5009270;28;20125;-52
2022/12/12 06:59:15;;;;;;;19.25;12.13;;;0.50;65.60;;;;;;5010731;28;20041;-52
2022/12/12 07:01:43;;;;;;;24.38;13.85;;;0.50;65.70;;;;;;5005502;28;20121;-51
2022/12/12 07:04:13;;;;;;;23.55;13.95;;;0.50;65.60;;;;;;5004704;28;20056;-53
2022/12/12 07:06:40;;;;;;;25.63;12.75;;;0.50;65.60;;;;;;5010783;28;20129;-53
2022/12/12 07:09:07;;;;;;;21.42;12.93;;;0.50;65.60;;;;;;5013596;28;20042;-53
2022/12/12 07:11:38;;;;;;;21.33;12.98;;;0.40;65.50;;;;;;5009556;28;20041;-53
2022/12/12 07:14:08;;;;;;;19.25;12.13;;;0.40;65.50;;;;;;5001925;28;20513;-50
2022/12/12 07:16:38;;;;;;;27.10;14.02;;;0.40;65.50;;;;;;5005834;28;20037;-53
2022/12/12 07:19:10;;;;;;;20.67;12.82;;;0.40;65.50;;;;;;5007039;28;20459;-53
2022/12/12 07:21:39;;;;;;;19.45;12.40;;;0.40;65.50;;;;;;5009044;28;20906;-52
2022/12/12 07:24:14;;;;;;;19.20;11.65;;;0.40;65.50;;;;;;5004616;28;20054;-52
2022/12/12 07:26:45;;;;;;;21.08;11.75;;;0.40;65.50;;;;;;5006445;28;20133;-51
2022/12/12 07:29:11;;;;;;;18.55;12.35;;;0.40;65.50;;;;;;5001545;28;20057;-52
2022/12/12 07:31:39;;;;;;;22.92;13.80;;;0.30;65.40;;;;;;4999642;28;20293;-52
2022/12/12 07:34:05;;;;;;;24.38;13.10;;;0.30;65.40;;;;;;5001363;28;20041;-53
2022/12/12 07:36:37;;;;;;;20.48;12.65;;;0.30;65.40;;;;;;5001761;28;20117;-52
2022/12/12 07:39:03;;;;;;;22.50;13.30;;;0.30;65.40;;;;;;5004632;28;20045;-51
2022/12/12 07:41:30;;;;;;;21.02;13.00;;;0.30;65.40;;;;;;5001386;28;20045;-53
2022/12/12 07:43:59;;;;;;;18.73;12.35;;;0.30;65.40;;;;;;4997010;28;20168;-51
2022/12/12 07:46:25;;;;;;;21.38;12.27;;;0.40;65.40;;;;;;5002112;28;20771;-50
2022/12/12 07:48:54;;;;;;;21.05;12.35;;;0.30;65.40;;;;;;5001407;28;20100;-53
2022/12/12 07:51:21;;;;;;;20.50;12.95;;;0.30;65.30;;;;;;5003289;28;20048;-52
2022/12/12 07:53:48;;;;;;;25.77;13.15;;;0.20;65.30;;;;;;4999394;28;20669;-53
2022/12/12 07:56:16;;;;;;;20.27;12.48;;;0.20;65.30;;;;;;5002058;28;20046;-51
2022/12/12 07:58:44;;;;;;;20.38;11.45;;;0.20;65.30;;;;;;5000629;28;20117;-54
2022/12/12 08:01:17;;;;;;;23.33;13.85;;;0.20;65.30;;;;;;5001516;28;20048;-50
2022/12/12 08:03:46;;;;;;;24.05;15.02;;;0.20;65.30;;;;;;4998357;28;20049;-50
2022/12/12 08:06:15;;;;;;;21.00;13.43;;;0.20;65.40;;;;;;5006788;28;20520;-51
2022/12/12 08:08:48;;;;;;;23.92;14.38;;;0.20;65.50;;;;;;5011150;28;20096;-54
2022/12/12 08:11:17;;;;;;;21.63;13.93;;;0.20;65.50;;;;;;5008382;28;20041;-51
2022/12/12 08:13:44;;;;;;;26.13;15.05;;;0.20;65.60;;;;;;5009025;28;20038;-54
2022/12/12 08:16:15;;;;;;;26.75;15.85;;;0.20;65.60;;;;;;5002767;28;20070;-51
2022/12/12 08:18:48;;;;;;;23.13;15.57;;;0.20;65.60;;;;;;5007951;28;20048;-49
2022/12/12 08:21:18;;;;;;;26.45;15.90;;;0.20;65.60;;;;;;5005467;28;20089;-50
2022/12/12 08:23:54;;;;;;;23.33;14.75;;;0.20;65.60;;;;;;5005016;28;20046;-52
2022/12/12 08:26:21;;;;;;;23.92;15.45;;;0.20;65.60;;;;;;4997902;28;20048;-49
2022/12/12 08:28:53;;;;;;;24.00;14.98;;;0.20;65.60;;;;;;5007654;28;20709;-51
2022/12/12 08:31:24;;;;;;;27.00;15.77;;;0.20;65.60;;;;;;5008844;28;20160;-50
2022/12/12 08:33:52;;;;;;;29.35;16.45;;;0.30;65.70;;;;;;5002688;28;20664;-52
2022/12/12 08:36:30;;;;;;;21.83;15.50;;;0.30;65.70;;;;;;5007910;28;20084;-51
2022/12/12 08:39:03;;;;;;;29.00;16.17;;;0.30;65.80;;;;;;5009123;28;20112;-52
2022/12/12 08:41:29;;;;;;;26.60;15.73;;;0.30;65.70;;;;;;5006019;28;20076;-50
2022/12/12 08:43:56;;;;;;;25.60;15.60;;;0.30;65.80;;;;;;5004062;28;20048;-51
2022/12/12 08:46:23;;;;;;;22.17;15.02;;;0.30;65.80;;;;;;5007843;28;20038;-52
2022/12/12 08:48:57;;;;;;;27.08;16.35;;;0.30;65.90;;;;;;5008937;28;20087;-53
2022/12/12 08:51:26;;;;;;;25.13;15.00;;;0.30;65.90;;;;;;4999563;28;20728;-49
2022/12/12 08:53:55;;;;;;;26.63;15.60;;;0.40;66.10;;;;;;5007226;28;20490;-51
2022/12/12 08:56:25;;;;;;;25.25;15.73;;;0.40;66.10;;;;;;5003193;28;20136;-50
2022/12/12 08:58:54;;;;;;;24.15;15.02;;;0.40;66.30;;;;;;5006462;28;20057;-53
2022/12/12 09:01:30;;;;;;;27.58;13.63;;;0.50;66.60;;;;;;5003849;28;20145;-54
2022/12/12 09:03:57;;;;;;;20.25;13.95;;;0.50;66.80;;;;;;5009694;28;20426;-50
2022/12/12 09:06:27;;;;;;;24.60;15.30;;;0.50;67.00;;;;;;5008601;28;20038;-51
2022/12/12 09:08:59;;;;;;;23.15;15.40;;;0.60;67.10;;;;;;5004064;28;20038;-52
2022/12/12 09:11:30;;;;;;;23.05;14.77;;;0.60;67.20;;;;;;5002591;28;20052;-49
2022/12/12 09:13:57;;;;;;;23.08;14.73;;;0.70;67.40;;;;;;5008236;28;20118;-50
2022/12/12 09:16:26;;;;;;;22.35;14.35;;;0.70;67.30;;;;;;5008528;28;20097;-50
2022/12/12 09:18:53;;;;;;;23.02;13.32;;;0.80;67.40;;;;;;4997546;28;20042;-50
2022/12/12 09:21:19;;;;;;;23.60;14.43;;;0.80;67.40;;;;;;5003047;28;20050;-50
2022/12/12 09:23:49;;;;;;;24.83;14.20;;;1.00;67.40;;;;;;5008067;28;20154;-50
2022/12/12 09:26:22;;;;;;;22.08;14.38;;;1.00;67.40;;;;;;5008068;28;20053;-53
2022/12/12 09:28:52;;;;;;;19.53;12.50;;;0.90;67.40;;;;;;5000944;28;20115;-53
2022/12/12 09:31:19;;;;;;;24.05;13.02;;;1.10;67.40;;;;;;5002451;28;20042;-51
2022/12/12 09:33:47;;;;;;;23.77;13.48;;;1.00;67.30;;;;;;5008720;28;20038;-50
2022/12/12 09:36:14;;;;;;;18.58;12.82;;;1.00;67.30;;;;;;5007308;28;20065;-53
2022/12/12 09:38:41;;;;;;;20.85;12.05;;;1.10;67.30;;;;;;5009186;28;20042;-53
2022/12/12 09:41:08;;;;;;;18.52;11.98;;;1.10;67.40;;;;;;5011938;28;20069;-53
2022/12/12 09:43:55;;;;;;;21.52;12.68;;;1.10;67.40;;;;;;5005151;28;20085;-52
2022/12/12 09:46:40;;;;;;;15.73;10.05;;;1.20;67.60;;;;;;5006320;28;20092;-51
2022/12/12 09:49:14;;;;;;;18.08;11.18;;;1.20;67.70;;;;;;5009760;28;20038;-53
2022/12/12 09:51:44;;;;;;;18.30;11.75;;;1.30;67.80;;;;;;5005377;28;20038;-50
2022/12/12 09:54:17;;;;;;;18.60;11.70;;;1.30;67.80;;;;;;5012261;28;20033;-51
2022/12/12 09:57:08;;;;;;;19.77;11.18;;;1.30;67.90;;;;;;5009996;28;20450;-53
2022/12/12 09:59:49;;;;;;;21.95;11.88;;;1.40;68.30;;;;;;5012349;28;20445;-49
2022/12/12 10:02:34;;;;;;;18.88;12.65;;;1.40;68.10;;;;;;5006664;28;20085;-53
2022/12/12 10:05:28;;;;;;;17.08;10.77;;;1.40;68.20;;;;;;5011796;28;20053;-51
2022/12/12 10:08:20;;;;;;;15.10;9.75;;;1.50;68.40;;;;;;5009288;28;20050;-50
2022/12/12 10:10:54;;;;;;;16.00;9.50;;;1.60;68.20;;;;;;5010066;28;20042;-53
2022/12/12 10:13:26;;;;;;;17.05;10.18;;;1.60;68.00;;;;;;5007258;28;20570;-54
2022/12/12 10:16:01;;;;;;;18.02;9.90;;;1.70;68.00;;;;;;5012205;28;20048;-51
2022/12/12 10:18:56;;;;;;;13.85;9.88;;;1.60;68.00;;;;;;5010381;28;20380;-54
2022/12/12 10:21:30;;;;;;;14.23;9.00;;;1.70;68.30;;;;;;5005930;28;20157;-53
2022/12/12 10:24:24;;;;;;;14.48;8.77;;;1.70;67.90;;;;;;5013734;28;20050;-50
2022/12/12 10:26:51;;;;;;;19.90;9.85;;;1.70;67.90;;;;;;5008136;28;20060;-52
2022/12/12 10:29:21;;;;;;;15.00;8.93;;;1.80;67.90;;;;;;5011850;28;20425;-53
2022/12/12 10:32:08;;;;;;;22.63;10.57;;;1.80;67.90;;;;;;5012049;28;20053;-53
2022/12/12 10:34:45;;;;;;;18.83;10.23;;;1.80;68.10;;;;;;5011733;28;20414;-54
2022/12/12 10:37:34;;;;;;;14.65;9.82;;;1.80;68.00;;;;;;5006370;28;20038;-54
2022/12/12 10:40:23;;;;;;;15.73;9.50;;;1.80;68.20;;;;;;5011345;28;20124;-53
2022/12/12 10:43:01;;;;;;;17.13;9.32;;;1.90;67.90;;;;;;5012003;28;20069;-53
2022/12/12 10:45:47;;;;;;;13.65;8.68;;;1.90;68.00;;;;;;5003412;28;20046;-53
2022/12/12 10:48:15;;;;;;;14.18;8.93;;;1.90;67.90;;;;;;5005459;28;20045;-51
2022/12/12 10:50:47;;;;;;;16.15;9.40;;;1.90;68.00;;;;;;5005355;28;20042;-52
2022/12/12 10:53:20;;;;;;;17.33;8.88;;;2.00;68.10;;;;;;5006041;28;20557;-52
2022/12/12 10:56:03;;;;;;;17.60;10.27;;;2.00;68.10;;;;;;5011005;28;20041;-52
2022/12/12 10:58:42;;;;;;;13.65;8.73;;;2.00;68.40;;;;;;5004885;28;20606;-53
2022/12/12 11:01:24;;;;;;;13.25;7.13;;;2.00;68.40;;;;;;5004520;28;20038;-51
2022/12/12 11:04:13;;;;;;;17.33;9.95;;;2.00;68.40;;;;;;4999988;28;20048;-54
2022/12/12 11:06:45;;;;;;;22.55;8.98;;;2.10;68.30;;;;;;5009252;28;20054;-52
2022/12/12 11:09:21;;;;;;;11.80;7.50;;;2.10;68.40;;;;;;5012614;28;20066;-53
2022/12/12 11:11:58;;;;;;;13.38;8.13;;;2.10;68.50;;;;;;5009786;28;20095;-53
2022/12/12 11:14:35;;;;;;;14.10;8.23;;;2.20;68.60;;;;;;5006089;28;20084;-51
2022/12/12 11:17:38;;;;;;;13.05;8.45;;;2.20;68.60;;;;;;4999362;28;20064;-54
2022/12/12 11:20:08;;;;;;;15.10;8.32;;;2.30;69.00;;;;;;4999566;28;20414;-52
2022/12/12 11:22:37;;;;;;;10.77;7.28;;;2.30;68.60;;;;;;5008310;28;20506;-50
2022/12/12 11:25:05;;;;;;;13.13;8.55;;;2.30;68.70;;;;;;5006921;28;20030;-50
2022/12/12 11:27:36;;;;;;;16.50;8.25;;;2.30;68.80;;;;;;5002971;28;20061;-51
2022/12/12 11:30:27;;;;;;;15.90;7.97;;;2.50;69.00;;;;;;4991663;28;20043;-51
2022/12/12 11:32:59;;;;;;;15.95;9.18;;;2.40;68.90;;;;;;5006846;28;20124;-54
2022/12/12 11:35:34;;;;;;;14.85;8.43;;;2.40;68.90;;;;;;5009640;28;20038;-53
2022/12/12 11:38:13;;;;;;;14.85;8.27;;;2.40;69.00;;;;;;5008553;28;20045;-52
2022/12/12 11:40:40;;;;;;;13.30;7.97;;;2.50;68.90;;;;;;5009063;28;20050;-53
2022/12/12 11:43:25;;;;;;;11.73;5.88;;;2.50;68.90;;;;;;5007824;28;20052;-51
2022/12/12 11:46:12;;;;;;;11.85;6.65;;;2.60;69.00;;;;;;5010723;28;20461;-49
2022/12/12 11:48:50;;;;;;;10.65;7.18;;;2.60;68.90;;;;;;5011542;28;20046;-50
2022/12/12 11:51:36;;;;;;;14.13;8.25;;;2.60;68.80;;;;;;5008464;28;20042;-52
2022/12/12 11:54:25;;;;;;;10.95;6.95;;;2.70;69.00;;;;;;5008815;28;20041;-53
2022/12/12 11:57:00;;;;;;;13.13;8.65;;;2.70;68.80;;;;;;5003395;28;20053;-54
2022/12/12 12:00:02;;;;;;;16.45;8.93;;;2.70;68.60;;;;;;5007078;28;20034;-54
2022/12/12 12:02:48;;;;;;;8.57;5.72;;;2.80;68.80;;;;;;5009724;28;20072;-50
2022/12/12 12:05:30;;;;;;;12.50;7.03;;;2.80;68.50;;;;;;5003761;28;20073;-53
2022/12/12 12:08:17;;;;;;;13.40;6.70;;;2.90;68.40;;;;;;5008577;28;20121;-54
2022/12/12 12:11:06;;;;;;;10.95;6.30;;;2.90;68.30;;;;;;5008539;28;20053;-54
2022/12/12 12:14:01;;;;;;;10.95;6.43;;;2.90;68.20;;;;;;5007088;28;20418;-51
2022/12/12 12:16:53;;;;;;;8.90;5.70;;;3.00;68.20;;;;;;5008800;28;20054;-52
2022/12/12 12:19:36;;;;;;;11.73;5.50;;;3.00;67.90;;;;;;5001980;28;20042;-52
2022/12/12 12:22:37;;;;;;;11.25;6.38;;;3.00;67.90;;;;;;5015314;22;20161;-52
2022/12/12 12:25:16;;;;;;;8.88;5.20;;;3.10;67.90;;;;;;4988810;28;20043;-51
2022/12/12 12:28:01;;;;;;;12.10;6.25;;;3.10;67.80;;;;;;4989459;28;20046;-50
2022/12/12 12:30:56;;;;;;;9.18;4.65;;;3.10;67.70;;;;;;4992359;28;20062;-52
2022/12/12 12:33:25;;;;;;;10.60;5.57;;;3.20;68.20;;;;;;4980521;28;20105;-55
2022/12/12 12:35:58;;;;;;;10.23;5.55;;;3.20;67.50;;;;;;4963697;28;20042;-51
2022/12/12 12:38:39;;;;;;;18.27;10.68;;;3.20;67.40;;;;;;4970118;28;20046;-50
2022/12/12 12:41:25;;;;;;;10.73;6.53;;;3.20;67.20;;;;;;4970971;28;20575;-54
2022/12/12 12:43:54;;;;;;;10.63;7.07;;;3.20;67.20;;;;;;4970353;28;20418;-55
2022/12/12 12:46:36;;;;;;;11.27;6.28;;;3.20;67.10;;;;;;4968808;28;20046;-51
2022/12/12 12:49:28;;;;;;;14.07;6.75;;;3.30;67.20;;;;;;4964000;28;20057;-52
2022/12/12 12:52:01;;;;;;;;;;;3.30;67.10;;;;;;4971588;28;20113;-50
2022/12/12 12:54:40;;;;;;;10.07;6.68;;;3.30;67.20;;;;;;4971466;28;20021;-53
2022/12/12 12:57:22;;;;;;;10.65;6.90;;;3.40;67.00;;;;;;4962559;28;20114;-54
2022/12/12 12:59:55;;;;;;;8.43;6.13;;;3.40;67.00;;;;;;4971559;28;20704;-52
2022/12/12 13:02:48;;;;;;;12.38;6.90;;;3.40;67.00;;;;;;4966194;28;20479;-54
2022/12/12 13:06:00;;;;;;;11.60;6.45;;;3.40;67.00;;;;;;4958966;28;20495;-54
2022/12/12 13:09:00;;;;;;;10.80;5.82;;;3.40;66.90;;;;;;4949691;28;20047;-52
2022/12/12 13:11:43;;;;;;;11.35;6.18;;;3.40;67.00;;;;;;4939089;28;20129;-53
2022/12/12 13:14:29;;;;;;;9.82;6.63;;;3.50;67.00;;;;;;4968759;28;20050;-53
2022/12/12 13:17:05;;;;;;;12.38;7.38;;;3.40;67.00;;;;;;4970964;28;20042;-53
2022/12/12 13:19:36;;;;;;;9.98;6.55;;;3.40;67.00;;;;;;4976003;28;20050;-54
2022/12/12 13:22:27;;;;;;;9.90;6.47;;;3.50;67.00;;;;;;4976334;28;20399;-51
2022/12/12 13:25:04;;;;;;;13.38;6.60;;;3.50;67.00;;;;;;4971466;28;20106;-52
2022/12/12 13:27:44;;;;;;;8.38;5.25;;;3.50;66.90;;;;;;4974561;28;20039;-55
2022/12/12 13:30:24;;;;;;;10.85;6.18;;;3.50;66.70;;;;;;4956427;29;20049;-53